Time;durP1;ratioP1;P1;durP2;ratioP2;P2;SDS_P1;SDS_P2;PMS_P1;PMS_P2;Temp;Humidity;BMP_temperature;BMP_pressure;BME280_temperature;BME280_humidity;BME280_pressure;Samples;Min_cycle;Max_cycle;Signal;HPM_P1;HPM_P2
2021/12/20 00:02:08;;;;;;;20.10;3.00;;;29.10;99.90;;;;;;5014758;28;20181;-71
2021/12/20 00:04:35;;;;;;;17.77;4.67;;;29.60;99.90;;;;;;5015497;28;20269;-69
2021/12/20 00:07:03;;;;;;;12.57;2.93;;;30.00;99.90;;;;;;5015498;28;20173;-71
2021/12/20 00:09:30;;;;;;;25.20;7.23;;;30.30;99.90;;;;;;4996412;28;20190;-69
2021/12/20 00:11:58;;;;;;;15.33;3.47;;;30.30;99.90;;;;;;4978173;28;20190;-73
2021/12/20 00:14:25;;;;;;;11.87;2.87;;;30.30;99.90;;;;;;5000783;28;20178;-69
2021/12/20 00:16:52;;;;;;;11.90;2.53;;;29.90;99.90;;;;;;4995907;28;20632;-72
2021/12/20 00:19:20;;;;;;;20.20;3.03;;;30.00;99.90;;;;;;5010003;28;20225;-73
2021/12/20 00:21:47;;;;;;;13.33;2.53;;;30.30;99.90;;;;;;5013983;28;20228;-71
2021/12/20 00:24:14;;;;;;;17.70;3.20;;;30.20;99.90;;;;;;5015145;28;20523;-70
2021/12/20 00:26:42;;;;;;;12.73;3.00;;;30.10;99.90;;;;;;4997642;28;20186;-72
2021/12/20 00:29:09;;;;;;;13.90;2.30;;;30.30;99.90;;;;;;4999350;28;20640;-72
2021/12/20 00:31:36;;;;;;;10.50;2.88;;;30.40;99.90;;;;;;4995565;28;20191;-73
2021/12/20 00:34:04;;;;;;;14.98;2.88;;;30.40;99.90;;;;;;5010047;28;20205;-70
2021/12/20 00:36:31;;;;;;;10.48;2.65;;;30.70;99.90;;;;;;5004711;28;20187;-71
2021/12/20 00:41:43;;;;;;;16.53;3.13;;;31.10;99.90;;;;;;4995390;28;20308;-71
2021/12/20 00:44:11;;;;;;;15.47;3.60;;;30.10;99.90;;;;;;4993144;28;20527;-71
2021/12/20 00:46:38;;;;;;;15.60;3.07;;;30.20;99.90;;;;;;5015010;28;20185;-70
2021/12/20 00:49:06;;;;;;;13.37;2.87;;;30.30;99.90;;;;;;5014539;28;20190;-71
2021/12/20 00:51:33;;;;;;;13.53;3.20;;;30.10;99.90;;;;;;5014540;28;20221;-71
2021/12/20 00:54:00;;;;;;;12.37;2.77;;;30.80;99.90;;;;;;5014438;28;20432;-71
2021/12/20 00:56:27;;;;;;;11.43;2.87;;;31.20;99.90;;;;;;5007205;28;20187;-69
2021/12/20 00:58:55;;;;;;;18.97;3.37;;;30.50;99.90;;;;;;4995109;28;20670;-70
2021/12/20 01:01:22;;;;;;;15.50;3.30;;;30.50;99.90;;;;;;4994950;28;20218;-70
2021/12/20 01:03:49;;;;;;;12.47;2.67;;;31.00;99.90;;;;;;4977189;28;20252;-70
2021/12/20 01:06:17;;;;;;;16.40;2.60;;;30.50;99.90;;;;;;4997855;28;20185;-70
2021/12/20 01:08:46;;;;;;;11.10;2.57;;;31.00;99.90;;;;;;5014270;28;20186;-69
2021/12/20 01:11:20;;;;;;;11.30;2.87;;;31.30;99.90;;;;;;5014336;28;20178;-68
2021/12/20 01:13:48;;;;;;;13.02;2.92;;;31.60;99.90;;;;;;4996342;28;20182;-69
2021/12/20 01:16:15;;;;;;;10.20;2.55;;;31.70;99.90;;;;;;5010902;28;20202;-70
2021/12/20 01:18:43;;;;;;;10.43;2.60;;;32.00;99.90;;;;;;4994390;28;20554;-70
2021/12/20 01:21:10;;;;;;;12.75;2.78;;;31.70;99.90;;;;;;4994360;28;20656;-69
2021/12/20 01:23:39;;;;;;;13.90;2.78;;;31.80;99.90;;;;;;4977044;28;20222;-69
2021/12/20 01:26:06;;;;;;;13.18;2.20;;;30.90;99.90;;;;;;4995582;28;20550;-69
2021/12/20 01:28:33;;;;;;;18.73;3.10;;;31.30;99.90;;;;;;4994447;28;20537;-67
2021/12/20 01:31:01;;;;;;;13.70;2.93;;;31.70;99.90;;;;;;4994085;28;20341;-69
2021/12/20 01:33:28;;;;;;;19.55;2.90;;;30.90;99.90;;;;;;4994374;28;20277;-69
2021/12/20 01:35:56;;;;;;;13.83;3.13;;;31.10;99.90;;;;;;4994377;28;20263;-70
2021/12/20 01:38:24;;;;;;;16.43;3.30;;;30.80;99.90;;;;;;4994335;28;20190;-68
2021/12/20 01:40:52;;;;;;;12.23;3.30;;;31.10;99.90;;;;;;4994294;28;20285;-68
2021/12/20 01:43:20;;;;;;;16.23;3.03;;;31.20;99.90;;;;;;4992989;28;20550;-69
2021/12/20 01:45:49;;;;;;;15.60;2.77;;;31.10;99.90;;;;;;4996095;28;20195;-69
2021/12/20 01:48:19;;;;;;;18.07;3.30;;;30.60;99.90;;;;;;5002421;28;20179;-69
2021/12/20 01:53:38;;;;;;;15.47;2.97;;;30.10;99.90;;;;;;5007958;28;20260;-68
2021/12/20 01:56:06;;;;;;;11.43;2.73;;;30.40;99.90;;;;;;4999783;28;20201;-69
2021/12/20 01:58:33;;;;;;;16.27;3.03;;;30.50;99.90;;;;;;4995843;28;20189;-69
2021/12/20 02:03:34;;;;;;;15.23;3.03;;;30.40;99.90;;;;;;4993891;28;20221;-70
2021/12/20 02:06:06;;;;;;;13.67;3.20;;;30.70;99.90;;;;;;4994051;28;20175;-68
2021/12/20 02:08:35;;;;;;;13.85;3.08;;;31.60;99.90;;;;;;4993724;28;20175;-68
2021/12/20 02:11:14;;;;;;;9.20;2.92;;;31.80;99.90;;;;;;4976104;28;20178;-69
2021/12/20 02:13:42;;;;;;;17.88;2.97;;;32.40;99.90;;;;;;4975847;28;20636;-69
2021/12/20 02:16:09;;;;;;;11.33;3.23;;;31.60;99.90;;;;;;4994017;28;20269;-70
2021/12/20 02:18:37;;;;;;;12.23;2.73;;;30.50;99.90;;;;;;4976158;28;20174;-69
2021/12/20 02:21:05;;;;;;;15.90;2.88;;;31.20;99.90;;;;;;4993946;28;20210;-70
2021/12/20 02:23:33;;;;;;;18.85;3.25;;;32.30;99.90;;;;;;5002280;28;20177;-69
2021/12/20 02:26:00;;;;;;;11.63;3.10;;;33.10;99.90;;;;;;5010070;28;20224;-69
2021/12/20 02:28:35;;;;;;;10.85;2.65;;;33.10;99.90;;;;;;4993465;28;20174;-70
2021/12/20 02:39:16;;;;;;;16.80;3.05;;;32.20;99.90;;;;;;5011839;28;20619;-69
2021/12/20 02:41:43;;;;;;;11.73;3.17;;;32.60;99.90;;;;;;5012809;28;20209;-69
2021/12/20 02:44:17;;;;;;;8.65;2.60;;;32.80;99.90;;;;;;5012904;28;20170;-69
2021/12/20 02:49:24;;;;;;;13.23;2.40;;;33.20;99.90;;;;;;4993233;28;20182;-69
2021/12/20 02:51:53;;;;;;;18.25;2.90;;;33.20;99.90;;;;;;5003841;28;20217;-70
2021/12/20 02:54:22;;;;;;;9.38;2.20;;;33.40;99.90;;;;;;5012731;28;20178;-70
2021/12/20 02:56:50;;;;;;;9.90;2.67;;;33.50;99.90;;;;;;5001261;28;20186;-69
2021/12/20 02:59:18;;;;;;;12.35;2.78;;;33.20;99.90;;;;;;4993134;28;20209;-69
2021/12/20 03:01:53;;;;;;;8.73;2.42;;;33.10;99.90;;;;;;4992990;28;20641;-71
2021/12/20 03:04:21;;;;;;;12.65;2.90;;;33.40;99.90;;;;;;4993030;28;20184;-69
2021/12/20 03:07:01;;;;;;;9.57;2.45;;;33.20;99.90;;;;;;5001110;28;20639;-69
2021/12/20 03:09:33;;;;;;;10.43;2.15;;;33.80;99.90;;;;;;5012611;28;20182;-70
2021/12/20 03:12:02;;;;;;;7.75;2.10;;;33.80;99.90;;;;;;5011196;28;20192;-70
2021/12/20 03:14:37;;;;;;;8.63;2.72;;;33.70;99.90;;;;;;5012496;28;20198;-68
2021/12/20 03:17:05;;;;;;;8.68;2.20;;;34.30;99.90;;;;;;4998729;28;20595;-69
2021/12/20 03:19:33;;;;;;;8.38;2.20;;;34.00;99.90;;;;;;4999661;28;20211;-70
2021/12/20 03:22:00;;;;;;;8.05;2.33;;;34.10;99.90;;;;;;5012199;28;20214;-70
2021/12/20 03:24:28;;;;;;;10.68;2.30;;;33.90;99.90;;;;;;4995018;28;20539;-70
2021/12/20 03:26:58;;;;;;;7.95;2.35;;;33.90;99.90;;;;;;5003748;28;20186;-70
2021/12/20 03:29:26;;;;;;;7.03;2.05;;;34.20;99.90;;;;;;4996433;28;20222;-70
2021/12/20 03:31:53;;;;;;;13.07;2.10;;;34.50;99.90;;;;;;4996665;28;20174;-71
2021/12/20 03:34:21;;;;;;;9.30;2.55;;;35.00;99.90;;;;;;4996618;28;20273;-71
2021/12/20 03:36:48;;;;;;;13.38;2.85;;;34.80;99.90;;;;;;5007169;28;20182;-71
2021/12/20 03:39:15;;;;;;;12.93;2.58;;;34.30;99.90;;;;;;4998133;28;20197;-71
2021/12/20 03:41:44;;;;;;;11.43;2.10;;;34.10;99.90;;;;;;4996602;28;20672;-71
2021/12/20 03:44:11;;;;;;;13.63;2.90;;;34.00;99.90;;;;;;4996485;28;20171;-72
2021/12/20 03:46:38;;;;;;;7.60;2.22;;;34.00;99.90;;;;;;5004712;28;20317;-71
2021/12/20 03:49:07;;;;;;;10.57;2.90;;;34.30;99.90;;;;;;4996534;28;20179;-72
2021/12/20 03:51:35;;;;;;;14.73;3.17;;;34.60;99.90;;;;;;4996182;28;20604;-71
2021/12/20 03:54:04;;;;;;;13.88;2.80;;;34.80;99.90;;;;;;5010445;28;20269;-70
2021/12/20 03:56:31;;;;;;;10.75;2.28;;;34.80;99.90;;;;;;5005376;28;20198;-71
2021/12/20 03:58:59;;;;;;;7.05;2.33;;;34.60;99.90;;;;;;5007422;28;20260;-72
2021/12/20 04:01:27;;;;;;;13.35;1.92;;;34.10;99.90;;;;;;5009907;28;20262;-71
2021/12/20 04:03:57;;;;;;;5.82;1.65;;;34.80;99.90;;;;;;5012558;28;20225;-72
2021/12/20 04:06:25;;;;;;;11.20;2.47;;;34.70;99.90;;;;;;5004804;28;20183;-71
2021/12/20 04:08:52;;;;;;;9.63;2.25;;;34.90;99.90;;;;;;4996137;28;20218;-71
2021/12/20 04:11:20;;;;;;;10.80;2.30;;;35.40;99.90;;;;;;4996025;28;20179;-71
2021/12/20 04:13:47;;;;;;;10.30;2.30;;;35.70;99.90;;;;;;5012645;28;20647;-70
2021/12/20 04:16:15;;;;;;;9.35;1.80;;;35.40;99.90;;;;;;5006124;28;20269;-70
2021/12/20 04:18:42;;;;;;;9.18;2.22;;;35.30;99.90;;;;;;4995952;28;20182;-70
2021/12/20 04:21:11;;;;;;;10.80;2.00;;;35.30;99.90;;;;;;4995924;28;20245;-71
2021/12/20 04:23:38;;;;;;;10.27;1.80;;;35.30;99.90;;;;;;4995869;28;20299;-71
2021/12/20 04:26:05;;;;;;;9.50;1.80;;;35.50;99.90;;;;;;5003308;28;20190;-71
2021/12/20 04:28:33;;;;;;;5.55;1.50;;;35.70;99.90;;;;;;4997690;28;20190;-71
2021/12/20 04:31:01;;;;;;;7.60;2.40;;;36.10;99.90;;;;;;5015032;28;20230;-70
2021/12/20 04:33:28;;;;;;;4.30;1.50;;;35.80;99.90;;;;;;5015247;28;20178;-70
2021/12/20 04:35:56;;;;;;;7.38;1.85;;;35.90;99.90;;;;;;5008706;28;20190;-71
2021/12/20 04:38:25;;;;;;;8.90;2.00;;;36.10;99.90;;;;;;4995516;28;20262;-71
2021/12/20 04:40:53;;;;;;;8.05;1.60;;;35.90;99.90;;;;;;5004255;28;20563;-71
2021/12/20 04:43:20;;;;;;;9.13;2.03;;;35.80;99.90;;;;;;5014868;28;20189;-69
2021/12/20 04:45:48;;;;;;;9.18;2.10;;;35.50;99.90;;;;;;5013313;28;20265;-71
2021/12/20 04:48:15;;;;;;;14.73;2.33;;;35.50;99.90;;;;;;5014976;28;20645;-71
2021/12/20 04:50:43;;;;;;;11.85;2.75;;;35.80;99.90;;;;;;5014886;28;20185;-71
2021/12/20 04:53:10;;;;;;;8.10;2.20;;;35.60;99.90;;;;;;5014841;28;20192;-70
2021/12/20 04:55:37;;;;;;;8.70;2.33;;;35.60;99.90;;;;;;5013838;28;20559;-70
2021/12/20 04:58:06;;;;;;;13.50;2.33;;;35.50;99.90;;;;;;4995243;28;20174;-72
2021/12/20 05:00:36;;;;;;;13.18;2.85;;;35.30;99.90;;;;;;4994710;28;20293;-71
2021/12/20 05:03:05;;;;;;;9.00;2.40;;;35.50;99.90;;;;;;4995210;28;20238;-72
2021/12/20 05:05:32;;;;;;;13.10;2.78;;;35.00;99.90;;;;;;5005222;28;20198;-72
2021/12/20 05:08:00;;;;;;;9.07;2.13;;;34.60;99.90;;;;;;4995160;28;20269;-73
2021/12/20 05:10:34;;;;;;;14.63;2.88;;;34.80;99.90;;;;;;4994857;28;20187;-69
2021/12/20 05:13:04;;;;;;;11.32;2.30;;;34.90;99.90;;;;;;4995128;28;20187;-69
2021/12/20 05:15:31;;;;;;;8.48;2.60;;;34.70;99.90;;;;;;5001638;28;20273;-69
2021/12/20 05:18:00;;;;;;;9.88;2.80;;;34.80;99.90;;;;;;5008550;28;20713;-71
2021/12/20 05:20:28;;;;;;;15.93;2.83;;;34.70;99.90;;;;;;5011275;28;20198;-70
2021/12/20 05:22:56;;;;;;;9.77;2.53;;;35.10;99.90;;;;;;5002848;28;20186;-69
2021/12/20 05:25:25;;;;;;;15.40;2.55;;;34.50;99.90;;;;;;5007047;28;20236;-69
2021/12/20 05:27:53;;;;;;;12.00;2.30;;;34.20;99.90;;;;;;4996506;28;20274;-68
2021/12/20 05:30:21;;;;;;;10.77;3.17;;;34.00;99.90;;;;;;5007853;28;20234;-69
2021/12/20 05:32:49;;;;;;;9.38;2.60;;;33.90;99.90;;;;;;5005502;28;20268;-69
2021/12/20 05:35:17;;;;;;;14.75;2.88;;;33.30;99.90;;;;;;4999130;28;20232;-68
2021/12/20 05:37:45;;;;;;;15.00;3.20;;;33.50;99.90;;;;;;4990475;28;20594;-69
2021/12/20 05:40:13;;;;;;;18.13;3.25;;;33.80;99.90;;;;;;5011129;28;20212;-69
2021/12/20 05:42:41;;;;;;;15.85;2.53;;;33.40;99.90;;;;;;5013708;28;20202;-69
2021/12/20 05:45:10;;;;;;;11.95;2.60;;;33.70;99.90;;;;;;5013173;28;20178;-70
2021/12/20 05:47:37;;;;;;;14.80;2.53;;;33.70;99.90;;;;;;5013294;28;20170;-70
2021/12/20 05:50:06;;;;;;;10.73;2.65;;;33.70;99.90;;;;;;5010061;28;20182;-70
2021/12/20 05:52:33;;;;;;;11.88;2.38;;;33.40;99.90;;;;;;5010542;28;20241;-70
2021/12/20 05:55:01;;;;;;;14.90;2.65;;;32.90;99.90;;;;;;4998267;28;20552;-69
2021/12/20 05:57:31;;;;;;;9.13;2.50;;;32.80;99.90;;;;;;5008183;28;20176;-69
2021/12/20 05:59:59;;;;;;;10.68;2.55;;;32.80;99.90;;;;;;4994681;28;20308;-68
2021/12/20 06:02:26;;;;;;;11.40;2.33;;;33.40;99.90;;;;;;5013329;28;20557;-68
2021/12/20 06:04:54;;;;;;;16.33;2.70;;;33.10;99.90;;;;;;5012843;28;20174;-69
2021/12/20 06:07:23;;;;;;;14.68;2.65;;;33.10;99.90;;;;;;4994025;28;20193;-69
2021/12/20 06:09:50;;;;;;;15.18;2.47;;;32.90;99.90;;;;;;4993771;28;20178;-69
2021/12/20 06:12:18;;;;;;;11.20;2.80;;;33.30;99.90;;;;;;4993568;28;20174;-71
2021/12/20 06:14:45;;;;;;;15.60;3.60;;;33.20;99.90;;;;;;4993692;28;20214;-68
2021/12/20 06:17:13;;;;;;;10.38;2.15;;;32.50;99.90;;;;;;5011942;28;20181;-73
2021/12/20 06:19:40;;;;;;;8.27;2.97;;;32.40;99.90;;;;;;5013474;28;20293;-70
2021/12/20 06:22:10;;;;;;;14.38;2.25;;;32.40;99.90;;;;;;5000113;28;20630;-68
2021/12/20 06:24:38;;;;;;;13.73;2.83;;;32.50;99.90;;;;;;5008837;28;20220;-69
2021/12/20 06:27:06;;;;;;;10.13;2.55;;;32.30;99.90;;;;;;5012063;28;20651;-70
2021/12/20 06:29:34;;;;;;;10.88;2.15;;;31.60;99.90;;;;;;5012130;28;20276;-68
2021/12/20 06:32:02;;;;;;;13.20;2.65;;;31.70;99.90;;;;;;5013125;28;20514;-70
2021/12/20 06:34:30;;;;;;;17.70;2.80;;;31.90;99.90;;;;;;5007917;28;20193;-68
2021/12/20 06:36:57;;;;;;;11.40;2.93;;;31.80;99.90;;;;;;4993482;28;20638;-69
2021/12/20 06:39:25;;;;;;;11.88;2.42;;;31.90;99.90;;;;;;4993365;28;20181;-69
2021/12/20 06:41:52;;;;;;;12.83;3.13;;;31.70;99.90;;;;;;4993183;28;20569;-69
2021/12/20 06:44:19;;;;;;;12.47;2.20;;;31.80;99.90;;;;;;4996321;28;20185;-69
2021/12/20 06:46:47;;;;;;;14.57;2.60;;;31.80;99.90;;;;;;5012976;28;20170;-69
2021/12/20 06:49:14;;;;;;;14.83;2.50;;;31.90;99.90;;;;;;5007387;28;20182;-69
2021/12/20 06:51:43;;;;;;;11.88;2.45;;;31.80;99.90;;;;;;4993002;28;20202;-70
2021/12/20 06:54:13;;;;;;;12.77;3.00;;;31.60;99.90;;;;;;4994125;28;20198;-70
2021/12/20 06:56:40;;;;;;;15.67;2.47;;;31.20;99.90;;;;;;4992991;28;20593;-71
2021/12/20 06:59:08;;;;;;;13.23;2.83;;;31.10;99.90;;;;;;4993190;28;20186;-70
2021/12/20 07:01:35;;;;;;;8.85;2.20;;;31.10;99.90;;;;;;4993112;28;20218;-71
2021/12/20 07:04:03;;;;;;;12.73;2.80;;;31.30;99.90;;;;;;5002386;28;20276;-69
2021/12/20 07:06:31;;;;;;;8.00;2.30;;;31.20;99.90;;;;;;5010946;28;20727;-71
2021/12/20 07:08:58;;;;;;;16.27;2.00;;;31.30;99.90;;;;;;4994834;28;20186;-70
2021/12/20 07:11:26;;;;;;;8.47;2.90;;;31.40;99.90;;;;;;4993819;28;20266;-69
2021/12/20 07:13:54;;;;;;;14.80;2.83;;;31.00;99.90;;;;;;4992997;28;20186;-69
2021/12/20 07:16:22;;;;;;;13.60;2.60;;;30.90;99.90;;;;;;4999161;28;20331;-70
2021/12/20 07:18:50;;;;;;;10.97;2.30;;;30.90;99.90;;;;;;5012545;28;20651;-69
2021/12/20 07:21:18;;;;;;;19.83;3.30;;;30.70;99.90;;;;;;5012220;28;20212;-69
2021/12/20 07:23:45;;;;;;;10.07;2.50;;;30.50;99.90;;;;;;5011999;28;20185;-70
2021/12/20 07:26:13;;;;;;;10.30;2.20;;;30.50;99.90;;;;;;4997627;28;20190;-71
2021/12/20 07:28:42;;;;;;;10.87;2.80;;;30.30;99.90;;;;;;5012204;28;20213;-71
2021/12/20 07:31:11;;;;;;;16.07;2.83;;;30.10;99.90;;;;;;5012084;28;20236;-71
2021/12/20 07:33:39;;;;;;;13.40;2.90;;;30.20;99.90;;;;;;5012353;28;20170;-69
2021/12/20 07:36:07;;;;;;;9.43;2.10;;;30.20;99.90;;;;;;5008002;28;20274;-70
2021/12/20 07:38:35;;;;;;;11.73;2.70;;;30.50;99.90;;;;;;4992586;28;20179;-70
2021/12/20 07:41:03;;;;;;;12.27;2.57;;;30.20;99.90;;;;;;4991354;28;20222;-70
2021/12/20 07:43:31;;;;;;;11.90;2.37;;;30.20;99.90;;;;;;5010352;28;20236;-69
2021/12/20 07:45:58;;;;;;;16.30;2.00;;;30.40;99.90;;;;;;5011616;28;20236;-68
2021/12/20 07:48:25;;;;;;;13.23;2.23;;;30.40;99.90;;;;;;4992573;28;20194;-68
2021/12/20 07:50:53;;;;;;;8.57;1.87;;;30.30;99.90;;;;;;4992428;28;20260;-69
2021/12/20 07:53:20;;;;;;;11.07;2.67;;;30.30;99.90;;;;;;4992666;28;20556;-69
2021/12/20 07:55:48;;;;;;;9.80;2.07;;;30.20;99.90;;;;;;4992540;28;20274;-69
2021/12/20 07:58:15;;;;;;;9.50;2.20;;;30.10;99.90;;;;;;5006872;28;20516;-69
2021/12/20 08:00:43;;;;;;;10.77;2.37;;;30.30;99.90;;;;;;5011974;28;20198;-71
2021/12/20 08:03:11;;;;;;;10.10;1.73;;;30.20;99.90;;;;;;5012050;28;20186;-70
2021/12/20 08:05:38;;;;;;;7.73;1.80;;;29.90;99.90;;;;;;5012092;28;20644;-70
2021/12/20 08:08:07;;;;;;;8.07;2.27;;;29.90;99.90;;;;;;5007640;28;20856;-69
2021/12/20 08:10:35;;;;;;;8.00;2.47;;;30.00;99.90;;;;;;4992720;28;20187;-68
2021/12/20 08:13:03;;;;;;;6.37;2.67;;;29.70;99.90;;;;;;4995937;28;20198;-69
2021/12/20 08:15:30;;;;;;;7.83;2.43;;;29.80;99.90;;;;;;4995902;28;20269;-70
2021/12/20 08:17:58;;;;;;;14.60;3.50;;;29.90;99.90;;;;;;5005234;28;20233;-70
2021/12/20 08:20:26;;;;;;;12.33;2.73;;;29.80;99.90;;;;;;5015272;28;20256;-70
2021/12/20 08:22:54;;;;;;;15.97;3.17;;;29.60;99.90;;;;;;5015436;28;20300;-70
2021/12/20 08:25:21;;;;;;;13.40;2.70;;;29.20;99.90;;;;;;5015387;28;20284;-69
2021/12/20 08:27:50;;;;;;;12.73;2.77;;;29.00;99.90;;;;;;5007059;28;20205;-70
2021/12/20 08:30:18;;;;;;;12.77;2.67;;;28.90;99.90;;;;;;4995223;28;20718;-69
2021/12/20 08:32:46;;;;;;;10.97;2.80;;;28.80;99.90;;;;;;4978081;28;20228;-71
2021/12/20 08:35:14;;;;;;;12.00;2.50;;;28.60;99.90;;;;;;5009740;28;20186;-70
2021/12/20 08:37:42;;;;;;;14.37;3.17;;;28.40;99.90;;;;;;5015076;28;20261;-70
2021/12/20 08:40:15;;;;;;;22.07;3.13;;;28.30;99.90;;;;;;5015000;28;20170;-71
2021/12/20 08:42:43;;;;;;;11.63;2.83;;;28.30;99.90;;;;;;5015007;28;20244;-69
2021/12/20 08:45:13;;;;;;;14.83;2.63;;;28.20;99.90;;;;;;5007006;28;20660;-70
2021/12/20 08:47:40;;;;;;;14.27;2.90;;;28.00;99.90;;;;;;4995295;28;20220;-70
2021/12/20 08:50:12;;;;;;;20.80;4.30;;;27.70;99.90;;;;;;4997638;28;20192;-71
2021/12/20 08:52:39;;;;;;;22.03;3.23;;;27.50;99.90;;;;;;5013778;28;20655;-72
2021/12/20 08:55:08;;;;;;;14.17;3.50;;;27.50;99.90;;;;;;5008278;28;20179;-72
2021/12/20 08:57:35;;;;;;;16.70;3.83;;;27.50;99.90;;;;;;4995220;28;20174;-71
2021/12/20 09:00:05;;;;;;;13.83;2.87;;;27.40;99.90;;;;;;4995091;28;20328;-70
2021/12/20 09:02:33;;;;;;;12.67;3.13;;;27.30;99.90;;;;;;5004767;28;20194;-70
2021/12/20 09:05:01;;;;;;;13.77;3.23;;;27.00;99.90;;;;;;5010203;28;20183;-69
2021/12/20 09:07:28;;;;;;;21.00;3.40;;;27.00;99.90;;;;;;4994859;28;20695;-68
2021/12/20 09:09:56;;;;;;;20.10;3.77;;;26.90;99.90;;;;;;4994242;28;20181;-69
2021/12/20 09:12:23;;;;;;;18.47;4.70;;;26.80;99.90;;;;;;4994701;28;20181;-69
2021/12/20 09:14:51;;;;;;;17.30;3.50;;;26.70;99.90;;;;;;4995500;28;20263;-69
2021/12/20 09:17:18;;;;;;;16.50;3.33;;;26.60;99.90;;;;;;5014144;28;20276;-71
2021/12/20 09:19:45;;;;;;;17.83;4.00;;;26.60;99.90;;;;;;5014246;28;20644;-70
2021/12/20 09:22:13;;;;;;;10.90;3.17;;;26.50;99.90;;;;;;5012980;28;20313;-70
2021/12/20 09:24:42;;;;;;;13.90;3.57;;;26.50;99.90;;;;;;5013414;28;20169;-71
2021/12/20 09:27:10;;;;;;;14.50;3.87;;;26.40;99.90;;;;;;5014025;28;20769;-70
2021/12/20 09:29:38;;;;;;;16.83;3.57;;;26.40;99.90;;;;;;5011540;28;20268;-70
2021/12/20 09:32:06;;;;;;;15.70;3.10;;;26.40;99.90;;;;;;4994484;28;20206;-70
2021/12/20 09:34:34;;;;;;;17.97;3.40;;;26.30;99.90;;;;;;4994739;28;20178;-72
2021/12/20 09:37:06;;;;;;;19.07;3.80;;;26.30;99.90;;;;;;5013935;28;20178;-72
2021/12/20 09:39:39;;;;;;;15.63;3.67;;;26.30;99.90;;;;;;5002935;28;20209;-72
2021/12/20 09:42:09;;;;;;;13.07;3.57;;;26.20;99.90;;;;;;4994124;28;20230;-71
2021/12/20 09:44:37;;;;;;;16.53;3.70;;;26.10;99.90;;;;;;4994905;28;20198;-71
2021/12/20 09:47:05;;;;;;;18.53;3.30;;;26.00;99.90;;;;;;4998667;28;20229;-71
2021/12/20 09:49:33;;;;;;;11.50;3.27;;;25.90;99.90;;;;;;4993972;28;20179;-72
2021/12/20 09:52:01;;;;;;;12.87;3.53;;;26.00;99.90;;;;;;4993907;28;20186;-72
2021/12/20 09:54:29;;;;;;;19.47;3.83;;;25.90;99.90;;;;;;4995685;28;20679;-72
2021/12/20 09:56:59;;;;;;;15.00;2.87;;;25.90;99.90;;;;;;5013352;28;20217;-69
2021/12/20 09:59:29;;;;;;;14.80;3.33;;;25.80;99.90;;;;;;4997302;28;20197;-71
2021/12/20 10:01:59;;;;;;;11.97;3.30;;;25.80;99.90;;;;;;4976734;28;20218;-72
2021/12/20 10:04:27;;;;;;;12.53;2.83;;;25.70;99.90;;;;;;4995540;28;20205;-73
2021/12/20 10:06:59;;;;;;;13.80;2.53;;;25.70;99.90;;;;;;5013815;28;20190;-73
2021/12/20 10:09:32;;;;;;;18.90;3.33;;;25.60;99.90;;;;;;5014037;28;20189;-75
2021/12/20 10:12:13;;;;;;;13.83;3.60;;;25.60;99.90;;;;;;5014008;28;20189;-74
2021/12/20 10:14:52;;;;;;;15.83;2.83;;;25.60;99.90;;;;;;4995040;28;20289;-72
2021/12/20 10:17:22;;;;;;;12.93;3.27;;;25.50;99.90;;;;;;5014571;28;20211;-72
2021/12/20 10:19:51;;;;;;;16.47;2.93;;;25.40;99.90;;;;;;5013857;28;20636;-71
2021/12/20 10:22:36;;;;;;;17.53;3.73;;;25.40;99.90;;;;;;5013641;28;20209;-71
2021/12/20 10:25:24;;;;;;;13.17;3.03;;;25.30;99.90;;;;;;4992559;28;20187;-72
2021/12/20 10:27:54;;;;;;;21.10;4.23;;;25.30;99.90;;;;;;4994020;28;20193;-72
2021/12/20 10:30:21;;;;;;;13.90;3.13;;;25.20;99.90;;;;;;4994175;28;20226;-71
2021/12/20 10:32:50;;;;;;;18.27;3.80;;;25.20;99.90;;;;;;4996951;28;20186;-71
2021/12/20 10:35:27;;;;;;;11.37;3.70;;;25.20;99.90;;;;;;4998468;28;20181;-73
2021/12/20 10:38:01;;;;;;;12.33;2.90;;;25.10;99.90;;;;;;5007957;28;20188;-73
2021/12/20 10:40:29;;;;;;;15.20;3.33;;;25.00;99.90;;;;;;4994069;28;20203;-73
2021/12/20 10:42:59;;;;;;;15.70;3.97;;;25.00;99.90;;;;;;4999134;28;20192;-72
2021/12/20 10:45:27;;;;;;;11.20;3.47;;;24.90;99.90;;;;;;5000074;28;20185;-72
2021/12/20 10:48:07;;;;;;;14.17;3.40;;;24.90;99.90;;;;;;5013443;28;20185;-73
2021/12/20 10:50:42;;;;;;;18.70;4.03;;;24.80;99.90;;;;;;5013533;28;20267;-72
2021/12/20 10:53:23;;;;;;;18.17;3.80;;;24.80;99.90;;;;;;4992057;28;20174;-73
2021/12/20 10:55:57;;;;;;;17.47;3.53;;;24.80;99.90;;;;;;5003178;28;20200;-73
2021/12/20 10:58:30;;;;;;;14.23;3.93;;;24.80;99.90;;;;;;5010380;28;20181;-73
2021/12/20 11:01:13;;;;;;;10.93;3.17;;;24.80;99.90;;;;;;5001983;28;20631;-73
2021/12/20 11:03:44;;;;;;;15.30;3.80;;;24.80;99.90;;;;;;5002570;28;20244;-73
2021/12/20 11:09:08;;;;;;;17.10;3.93;;;24.70;99.90;;;;;;5013473;28;20231;-72
2021/12/20 11:11:41;;;;;;;17.33;3.57;;;24.60;99.90;;;;;;5028360;28;20559;-73
2021/12/20 11:14:10;;;;;;;12.10;3.47;;;24.60;99.90;;;;;;5013227;28;20185;-73
2021/12/20 11:16:42;;;;;;;15.47;4.77;;;24.50;99.90;;;;;;5012451;28;20217;-73
2021/12/20 11:19:35;;;;;;;16.90;4.37;;;24.60;99.90;;;;;;4995816;28;20531;-73
2021/12/20 11:22:15;;;;;;;14.60;4.07;;;24.60;99.90;;;;;;5001662;28;20218;-74
2021/12/20 11:24:50;;;;;;;20.80;4.00;;;24.50;99.90;;;;;;4976287;28;20179;-72
2021/12/20 11:27:30;;;;;;;16.03;4.00;;;24.50;99.90;;;;;;4993814;28;20186;-75
2021/12/20 11:30:00;;;;;;;15.03;4.00;;;24.50;99.90;;;;;;4993518;28;20256;-72
2021/12/20 11:32:29;;;;;;;12.03;3.77;;;24.40;99.90;;;;;;4998047;28;20228;-72
2021/12/20 11:34:58;;;;;;;13.57;3.70;;;24.40;99.90;;;;;;5011768;28;20659;-72
2021/12/20 11:37:31;;;;;;;11.77;3.40;;;24.40;99.90;;;;;;5013170;28;20674;-73
2021/12/20 11:40:02;;;;;;;16.10;4.40;;;24.30;99.90;;;;;;5013077;28;20214;-73
2021/12/20 11:42:30;;;;;;;19.53;3.73;;;24.30;99.90;;;;;;5002256;28;20187;-72
2021/12/20 11:45:02;;;;;;;19.80;3.63;;;24.30;99.90;;;;;;4998619;28;20209;-73
2021/12/20 11:47:50;;;;;;;17.70;4.03;;;24.30;99.90;;;;;;5016665;28;20178;-72
2021/12/20 11:50:29;;;;;;;12.07;3.13;;;24.20;99.90;;;;;;5005323;28;20719;-73
2021/12/20 11:53:08;;;;;;;16.57;4.43;;;24.20;99.90;;;;;;4997475;28;20648;-73
2021/12/20 11:55:39;;;;;;;16.40;4.27;;;24.10;99.90;;;;;;5006305;28;20271;-72
2021/12/20 11:58:30;;;;;;;11.03;3.43;;;24.10;99.90;;;;;;5016805;28;20174;-72
2021/12/20 12:01:07;;;;;;;12.70;3.93;;;24.00;99.90;;;;;;5016234;28;20761;-74
2021/12/20 12:03:38;;;;;;;17.57;5.10;;;23.90;99.90;;;;;;5016560;28;20291;-73
2021/12/20 12:06:11;;;;;;;15.63;4.10;;;23.90;99.90;;;;;;4984475;28;20190;-73
2021/12/20 12:08:52;;;;;;;18.23;4.40;;;23.80;99.90;;;;;;4995794;28;20589;-74
2021/12/20 12:11:25;;;;;;;14.17;3.83;;;23.80;99.90;;;;;;4996600;28;20182;-74
2021/12/20 12:14:06;;;;;;;18.00;4.40;;;23.80;99.90;;;;;;4996659;28;20186;-74
2021/12/20 12:17:01;;;;;;;15.27;4.13;;;23.70;99.90;;;;;;4997020;28;20279;-73
2021/12/20 12:19:43;;;;;;;12.33;3.70;;;23.70;99.90;;;;;;5016098;28;20734;-73
2021/12/20 12:22:36;;;;;;;20.17;4.37;;;23.60;99.90;;;;;;4989289;28;20280;-73
2021/12/20 12:25:08;;;;;;;16.97;4.10;;;23.60;99.90;;;;;;4996681;28;20180;-72
2021/12/20 12:27:37;;;;;;;19.47;5.17;;;23.50;99.90;;;;;;4996552;28;20566;-73
2021/12/20 12:30:15;;;;;;;16.30;4.47;;;23.50;99.90;;;;;;4978541;28;20692;-72
2021/12/20 12:32:48;;;;;;;14.80;4.63;;;23.50;99.90;;;;;;4978917;28;20195;-74
2021/12/20 12:35:42;;;;;;;11.37;3.70;;;23.50;99.90;;;;;;4995177;28;20281;-73
2021/12/20 12:38:25;;;;;;;18.03;4.77;;;23.50;99.90;;;;;;5016108;28;20178;-74
2021/12/20 12:41:16;;;;;;;17.13;4.73;;;23.40;99.90;;;;;;5013732;28;20217;-73
2021/12/20 12:43:57;;;;;;;11.40;3.90;;;23.40;99.90;;;;;;5015985;28;20182;-75
2021/12/20 12:46:37;;;;;;;13.80;3.77;;;23.30;99.90;;;;;;5015914;28;20186;-73
2021/12/20 12:49:24;;;;;;;15.13;4.10;;;23.30;99.90;;;;;;5002480;28;20214;-72
2021/12/20 12:51:54;;;;;;;20.00;4.57;;;23.30;99.90;;;;;;4995903;28;20195;-73
2021/12/20 12:54:34;;;;;;;15.70;4.33;;;23.30;99.90;;;;;;4996189;28;20185;-72
2021/12/20 12:57:10;;;;;;;13.13;3.80;;;23.30;99.90;;;;;;4995708;28;20181;-71
2021/12/20 12:59:57;;;;;;;14.30;3.93;;;23.20;99.90;;;;;;4996022;28;20178;-73
2021/12/20 13:02:36;;;;;;;12.13;4.17;;;23.20;99.90;;;;;;4995985;28;20225;-73
2021/12/20 13:05:06;;;;;;;9.90;3.27;;;23.20;99.90;;;;;;4995811;28;20186;-72
2021/12/20 13:07:48;;;;;;;23.20;4.63;;;23.20;99.90;;;;;;4996021;28;20193;-73
2021/12/20 13:10:38;;;;;;;12.70;3.80;;;23.10;99.90;;;;;;4995845;28;20236;-73
2021/12/20 13:13:17;;;;;;;11.60;3.73;;;23.10;99.90;;;;;;4996212;28;20218;-73
2021/12/20 13:15:51;;;;;;;15.57;4.23;;;23.10;99.90;;;;;;4996648;28;20181;-72